createdAt,value
2022-12-31T00:01:01.269Z,78.16
2022-12-31T00:03:29.401Z,79.70
2022-12-31T00:05:56.924Z,82.77
2022-12-31T00:08:24.369Z,84.60
2022-12-31T00:10:54.366Z,88.36
2022-12-31T00:13:21.853Z,87.32
2022-12-31T00:15:49.313Z,88.17
2022-12-31T00:18:17.384Z,88.40
2022-12-31T00:20:44.913Z,85.11
2022-12-31T00:23:12.409Z,81.65
2022-12-31T00:25:40.161Z,82.70
2022-12-31T00:28:07.608Z,78.68
2022-12-31T00:30:35.098Z,75.95
2022-12-31T00:33:03.355Z,75.56
2022-12-31T00:35:30.904Z,74.79
2022-12-31T00:37:58.350Z,76.49
2022-12-31T00:40:26.033Z,78.52
2022-12-31T00:42:53.534Z,75.42
2022-12-31T00:45:20.923Z,74.23
2022-12-31T00:47:48.406Z,78.57
2022-12-31T00:50:15.875Z,78.76
2022-12-31T00:52:46.386Z,77.80
2022-12-31T00:55:13.732Z,77.85
2022-12-31T00:57:41.197Z,76.52
2022-12-31T01:00:12.346Z,76.61
2022-12-31T01:02:39.978Z,74.74
2022-12-31T01:05:07.673Z,74.56
2022-12-31T01:07:36.337Z,74.50
2022-12-31T01:10:03.750Z,72.60
2022-12-31T01:12:31.171Z,75.96
2022-12-31T01:14:58.958Z,76.91
2022-12-31T01:17:26.473Z,77.91
2022-12-31T01:19:53.716Z,79.00
2022-12-31T01:22:21.329Z,79.60
2022-12-31T01:24:48.856Z,78.13
2022-12-31T01:27:17.325Z,75.60
2022-12-31T01:29:44.888Z,74.37
2022-12-31T01:32:12.382Z,74.36
2022-12-31T01:34:41.358Z,75.53
2022-12-31T01:37:08.912Z,79.87
2022-12-31T01:39:36.402Z,80.85
2022-12-31T01:42:03.856Z,82.90
2022-12-31T01:44:35.262Z,80.69
2022-12-31T01:47:02.756Z,82.45
2022-12-31T01:49:30.178Z,82.04
2022-12-31T01:51:58.305Z,80.63
2022-12-31T01:54:25.631Z,80.68
2022-12-31T01:56:53.104Z,78.25
2022-12-31T01:59:21.253Z,77.15
2022-12-31T02:01:48.785Z,75.54
2022-12-31T02:04:16.383Z,73.52
2022-12-31T02:06:46.332Z,71.47
2022-12-31T02:09:13.743Z,69.95
2022-12-31T02:11:41.320Z,69.89
2022-12-31T02:14:10.316Z,70.08
2022-12-31T02:16:37.885Z,70.39
2022-12-31T02:19:05.314Z,71.82
2022-12-31T02:21:34.302Z,70.77
2022-12-31T02:24:02.002Z,73.02
2022-12-31T02:26:29.323Z,75.61
2022-12-31T02:28:56.726Z,80.15
2022-12-31T02:31:24.133Z,77.36
2022-12-31T02:33:51.798Z,76.30
2022-12-31T02:36:19.292Z,75.68
2022-12-31T02:38:46.962Z,74.50
2022-12-31T02:41:14.410Z,71.88
2022-12-31T02:43:41.733Z,71.07
2022-12-31T02:46:11.996Z,73.54
2022-12-31T02:48:39.454Z,73.07
2022-12-31T02:51:06.973Z,74.43
2022-12-31T02:53:34.631Z,74.48
2022-12-31T02:56:02.132Z,75.03
2022-12-31T02:58:29.565Z,76.43
2022-12-31T03:00:58.334Z,78.38
2022-12-31T03:03:25.685Z,74.90
2022-12-31T03:05:53.188Z,75.41
2022-12-31T03:08:21.262Z,76.20
2022-12-31T03:10:48.701Z,74.60
2022-12-31T03:13:16.178Z,75.45
2022-12-31T03:15:44.217Z,75.11
2022-12-31T03:18:11.593Z,74.88
2022-12-31T03:20:39.163Z,73.25
2022-12-31T03:23:06.781Z,70.91
2022-12-31T03:25:34.395Z,72.13
2022-12-31T03:28:01.845Z,71.82
2022-12-31T03:30:30.190Z,73.05
2022-12-31T03:32:57.656Z,72.44
2022-12-31T03:35:25.199Z,72.11
2022-12-31T03:37:52.892Z,74.44
2022-12-31T03:40:20.264Z,76.56
2022-12-31T03:42:47.694Z,75.38
2022-12-31T03:45:18.241Z,74.55
2022-12-31T03:47:45.725Z,73.94
2022-12-31T03:50:13.249Z,74.24
2022-12-31T03:52:42.265Z,73.87
2022-12-31T03:55:09.598Z,75.81
2022-12-31T03:57:37.092Z,74.15
2022-12-31T04:00:04.443Z,73.89
2022-12-31T04:02:32.035Z,73.17
2022-12-31T04:05:01.278Z,71.97
2022-12-31T04:07:28.733Z,70.27
2022-12-31T04:09:56.090Z,68.96
2022-12-31T04:12:23.673Z,70.22
2022-12-31T04:14:51.098Z,70.69
2022-12-31T04:17:22.255Z,70.50
2022-12-31T04:19:49.711Z,70.29
2022-12-31T04:22:17.049Z,71.90
2022-12-31T04:24:44.537Z,71.67
2022-12-31T04:27:11.885Z,72.82
2022-12-31T04:29:39.355Z,72.61
2022-12-31T04:32:06.818Z,73.23
2022-12-31T04:34:34.253Z,74.23
2022-12-31T04:37:01.606Z,73.22
2022-12-31T04:39:28.978Z,72.14
2022-12-31T04:41:56.545Z,71.88
2022-12-31T04:44:23.980Z,72.29
2022-12-31T04:46:54.222Z,69.97
2022-12-31T04:49:21.666Z,68.80
2022-12-31T04:51:49.528Z,68.87
2022-12-31T04:54:17.158Z,67.92
2022-12-31T04:56:44.742Z,71.45
2022-12-31T04:59:12.103Z,73.40
2022-12-31T05:01:40.267Z,72.68
2022-12-31T05:04:07.822Z,72.39
2022-12-31T05:06:35.215Z,72.74
2022-12-31T05:09:02.660Z,71.86
2022-12-31T05:11:29.987Z,72.29
2022-12-31T05:13:57.583Z,71.45
2022-12-31T05:16:26.269Z,71.35
2022-12-31T05:18:53.918Z,70.32
2022-12-31T05:21:21.497Z,75.21
2022-12-31T05:23:51.164Z,74.54
2022-12-31T05:26:18.736Z,75.01
2022-12-31T05:28:46.202Z,74.13
2022-12-31T05:31:15.229Z,75.04
2022-12-31T05:33:42.670Z,75.94
2022-12-31T05:36:10.267Z,75.83
2022-12-31T05:38:37.988Z,74.08
2022-12-31T05:41:05.346Z,75.93
2022-12-31T05:43:32.710Z,75.72
2022-12-31T05:46:04.237Z,75.06
2022-12-31T05:48:33.776Z,72.78
2022-12-31T05:51:01.307Z,72.92
2022-12-31T05:53:28.985Z,73.04
2022-12-31T05:55:56.362Z,73.31
2022-12-31T05:58:23.846Z,74.41
2022-12-31T06:00:53.210Z,73.62
2022-12-31T06:03:20.779Z,74.14
2022-12-31T06:05:48.331Z,72.73
2022-12-31T06:08:19.172Z,71.58
2022-12-31T06:10:46.702Z,72.12
2022-12-31T06:13:14.170Z,70.50
2022-12-31T06:15:43.226Z,70.44
2022-12-31T06:18:10.657Z,71.69
2022-12-31T06:20:38.184Z,73.26
2022-12-31T06:23:07.176Z,73.17
2022-12-31T06:25:34.558Z,73.47
2022-12-31T06:28:01.985Z,73.63
2022-12-31T06:30:33.129Z,73.05
2022-12-31T06:33:00.603Z,72.80
2022-12-31T06:35:27.947Z,73.08
2022-12-31T06:37:55.383Z,71.74
2022-12-31T06:40:22.965Z,71.93
2022-12-31T06:42:59.557Z,73.00
2022-12-31T06:45:27.663Z,70.64
2022-12-31T06:47:55.375Z,70.09
2022-12-31T06:50:22.883Z,69.91
2022-12-31T06:52:50.302Z,68.19
2022-12-31T06:55:21.125Z,67.62
2022-12-31T06:57:48.600Z,67.78
2022-12-31T07:00:16.061Z,68.09
2022-12-31T07:02:43.579Z,67.09
2022-12-31T07:05:13.121Z,67.00
2022-12-31T07:07:40.561Z,68.18
2022-12-31T07:10:08.019Z,67.84
2022-12-31T07:12:36.119Z,67.55
2022-12-31T07:15:03.574Z,69.80
2022-12-31T07:17:31.011Z,72.56
2022-12-31T07:20:00.142Z,69.99
2022-12-31T07:22:27.764Z,68.42
2022-12-31T07:24:55.052Z,70.61
2022-12-31T07:27:22.377Z,70.42
2022-12-31T07:29:51.756Z,70.26
2022-12-31T07:32:19.338Z,70.72
2022-12-31T07:34:46.808Z,69.79
2022-12-31T07:37:14.467Z,73.66
2022-12-31T07:39:42.040Z,73.06
2022-12-31T07:42:09.386Z,71.14
2022-12-31T07:44:36.730Z,72.25
2022-12-31T07:47:04.113Z,72.51
2022-12-31T07:49:31.469Z,73.11
2022-12-31T07:51:58.938Z,73.78
2022-12-31T07:54:29.411Z,72.90
2022-12-31T07:56:57.245Z,71.89
2022-12-31T07:59:24.876Z,74.18
2022-12-31T08:01:52.718Z,71.36
2022-12-31T08:04:20.135Z,71.04
2022-12-31T08:06:47.659Z,69.82
2022-12-31T08:09:15.238Z,69.86
2022-12-31T08:11:42.610Z,69.87
2022-12-31T08:14:12.126Z,69.48
2022-12-31T08:16:39.575Z,68.67
2022-12-31T08:19:07.026Z,70.34
2022-12-31T08:21:35.204Z,69.65
2022-12-31T08:24:02.929Z,68.57
2022-12-31T08:26:30.517Z,68.98
2022-12-31T08:28:57.992Z,68.07
2022-12-31T08:31:27.120Z,67.23
2022-12-31T08:33:54.518Z,66.51
2022-12-31T08:36:22.592Z,66.61
2022-12-31T08:38:50.043Z,67.32
2022-12-31T08:41:19.049Z,66.28
2022-12-31T08:43:46.523Z,67.35
2022-12-31T08:46:13.918Z,67.05
2022-12-31T08:48:41.326Z,66.86
2022-12-31T08:51:08.766Z,66.46
2022-12-31T08:53:36.226Z,66.09
2022-12-31T08:56:03.897Z,65.94
2022-12-31T08:58:31.383Z,66.52
2022-12-31T09:00:58.863Z,64.67
2022-12-31T09:03:26.609Z,65.25
2022-12-31T09:05:53.911Z,65.07
2022-12-31T09:08:21.377Z,64.56
2022-12-31T09:10:48.733Z,65.21
2022-12-31T09:13:16.196Z,65.42
2022-12-31T09:15:43.676Z,66.64
2022-12-31T09:18:12.047Z,66.54
2022-12-31T09:20:44.143Z,67.27
2022-12-31T09:23:11.683Z,66.94
2022-12-31T09:25:39.133Z,66.56
2022-12-31T09:28:06.567Z,66.70
2022-12-31T09:30:38.045Z,65.00
2022-12-31T09:33:05.516Z,64.58
2022-12-31T09:35:32.885Z,64.13
2022-12-31T09:38:00.301Z,64.76
2022-12-31T09:40:27.870Z,64.27
2022-12-31T09:42:55.369Z,63.54
2022-12-31T09:45:23.101Z,63.17
2022-12-31T09:47:50.551Z,62.45
2022-12-31T09:50:18.150Z,62.71
2022-12-31T09:52:45.972Z,62.03
2022-12-31T09:55:13.316Z,62.49
2022-12-31T09:57:40.890Z,62.37
2022-12-31T10:00:12.064Z,62.02
2022-12-31T10:02:39.617Z,62.29
2022-12-31T10:05:07.258Z,61.85
2022-12-31T10:07:34.902Z,61.81
2022-12-31T10:10:02.366Z,62.13
2022-12-31T10:12:30.882Z,61.19
2022-12-31T10:14:58.505Z,60.72
2022-12-31T10:17:25.971Z,60.98
2022-12-31T10:19:53.432Z,60.57
2022-12-31T10:22:25.025Z,60.27
2022-12-31T10:24:52.455Z,59.46
2022-12-31T10:27:19.794Z,61.26
2022-12-31T10:29:47.199Z,60.45
2022-12-31T10:32:14.627Z,60.68
2022-12-31T10:34:42.072Z,60.64
2022-12-31T10:37:13.018Z,59.29
2022-12-31T10:39:40.525Z,59.08
2022-12-31T10:42:07.846Z,59.03
2022-12-31T10:44:35.300Z,59.14
2022-12-31T10:47:03.561Z,58.42
2022-12-31T10:49:30.900Z,58.58
2022-12-31T10:51:58.496Z,58.05
2022-12-31T10:54:25.842Z,58.36
2022-12-31T10:56:53.401Z,58.88
2022-12-31T10:59:21.245Z,58.88
2022-12-31T11:01:49.113Z,60.19
2022-12-31T11:04:16.693Z,61.05
2022-12-31T11:06:44.046Z,59.25
2022-12-31T11:09:11.514Z,58.74
2022-12-31T11:11:39.103Z,58.25
2022-12-31T11:14:12.499Z,60.12
2022-12-31T11:16:39.818Z,60.06
2022-12-31T11:19:07.179Z,60.82
2022-12-31T11:21:41.264Z,60.44
2022-12-31T11:24:10.999Z,60.43
2022-12-31T11:26:38.576Z,59.20
2022-12-31T11:29:05.905Z,58.72
2022-12-31T11:31:33.454Z,59.83
2022-12-31T11:34:00.848Z,59.23
2022-12-31T11:36:28.181Z,59.34
2022-12-31T11:38:55.576Z,60.30
2022-12-31T11:41:23.037Z,59.00
2022-12-31T11:43:50.467Z,59.51
2022-12-31T11:46:21.024Z,60.42
2022-12-31T11:48:48.551Z,59.74
2022-12-31T11:51:15.855Z,60.71
2022-12-31T11:53:43.974Z,59.12
2022-12-31T11:56:14.428Z,58.91
2022-12-31T11:58:41.876Z,58.61
2022-12-31T12:01:11.010Z,57.80
2022-12-31T12:03:38.679Z,57.72
2022-12-31T12:06:06.270Z,57.32
2022-12-31T12:08:34.978Z,56.18
2022-12-31T12:11:02.959Z,56.15
2022-12-31T12:13:32.483Z,56.62
2022-12-31T12:16:03.102Z,56.71
2022-12-31T12:18:40.496Z,56.36
2022-12-31T12:21:24.317Z,56.47
2022-12-31T12:23:52.560Z,56.17
2022-12-31T12:26:20.253Z,56.52
2022-12-31T12:28:52.923Z,57.21
2022-12-31T12:31:20.307Z,58.25
2022-12-31T12:33:47.946Z,56.23
2022-12-31T12:36:17.977Z,55.74
2022-12-31T12:38:45.509Z,56.21
2022-12-31T12:41:12.891Z,55.87
2022-12-31T12:43:40.458Z,56.43
2022-12-31T12:46:08.907Z,56.00
2022-12-31T12:48:36.379Z,55.26
2022-12-31T12:51:04.067Z,55.12
2022-12-31T12:53:31.511Z,54.27
2022-12-31T12:55:58.874Z,53.56
2022-12-31T12:58:26.643Z,53.52
2022-12-31T13:00:54.842Z,53.71
2022-12-31T13:03:25.081Z,52.38
2022-12-31T13:05:53.176Z,52.65
2022-12-31T13:08:21.075Z,53.47
2022-12-31T13:10:48.860Z,52.25
2022-12-31T13:13:25.795Z,54.11
2022-12-31T13:15:53.519Z,53.16
2022-12-31T13:18:21.229Z,52.44
2022-12-31T13:20:48.806Z,52.48
2022-12-31T13:23:17.189Z,53.08
2022-12-31T13:25:45.462Z,52.42
2022-12-31T13:28:12.909Z,52.36
2022-12-31T13:30:42.005Z,52.82
2022-12-31T13:33:09.749Z,53.84
2022-12-31T13:35:37.160Z,53.13
2022-12-31T13:38:05.861Z,53.16
2022-12-31T13:40:33.665Z,53.40
2022-12-31T13:43:01.845Z,52.47
2022-12-31T13:45:33.073Z,52.48
2022-12-31T13:48:00.877Z,52.76
2022-12-31T13:50:28.818Z,53.89
2022-12-31T13:52:56.407Z,54.13
2022-12-31T13:55:23.998Z,54.37
2022-12-31T13:57:51.646Z,54.03
2022-12-31T14:00:19.091Z,52.54
2022-12-31T14:02:46.557Z,54.46
2022-12-31T14:05:14.220Z,53.75
2022-12-31T14:07:45.740Z,54.19
2022-12-31T14:10:15.304Z,54.46
2022-12-31T14:12:42.847Z,55.02
2022-12-31T14:15:10.889Z,55.10
2022-12-31T14:17:38.352Z,55.58
2022-12-31T14:20:05.750Z,54.88
2022-12-31T14:22:34.401Z,55.24
2022-12-31T14:25:02.906Z,56.26
2022-12-31T14:27:31.163Z,56.26
2022-12-31T14:29:59.334Z,56.26
2022-12-31T14:32:27.021Z,57.13
2022-12-31T14:34:56.896Z,56.83
2022-12-31T14:37:24.292Z,57.65
2022-12-31T14:39:51.638Z,56.63
2022-12-31T14:42:20.617Z,56.07
2022-12-31T14:44:48.766Z,56.28
2022-12-31T14:47:17.188Z,56.34
2022-12-31T14:49:44.923Z,56.34
2022-12-31T14:52:15.171Z,55.85
2022-12-31T14:54:43.426Z,55.21
2022-12-31T14:57:10.793Z,55.73
2022-12-31T14:59:40.620Z,55.76
2022-12-31T15:02:09.563Z,56.45
2022-12-31T15:04:37.789Z,56.34
2022-12-31T15:07:06.156Z,56.42
2022-12-31T15:09:35.020Z,55.87
2022-12-31T15:12:03.358Z,55.02
2022-12-31T15:14:36.819Z,55.97
2022-12-31T15:17:09.067Z,55.82
2022-12-31T15:19:38.292Z,56.97
2022-12-31T15:22:05.691Z,56.21
2022-12-31T15:24:33.226Z,55.95
2022-12-31T15:27:00.805Z,56.41
2022-12-31T15:29:29.911Z,56.35
2022-12-31T15:31:57.352Z,56.33
2022-12-31T15:34:24.897Z,57.95
2022-12-31T15:36:55.668Z,58.20
2022-12-31T15:39:24.538Z,56.75
2022-12-31T15:44:39.531Z,57.84
2022-12-31T15:47:07.107Z,56.80
2022-12-31T15:49:34.541Z,58.09
2022-12-31T15:52:01.866Z,58.17
2022-12-31T15:54:29.511Z,57.79
2022-12-31T15:56:56.945Z,56.83
2022-12-31T15:59:24.785Z,57.28
2022-12-31T16:01:52.333Z,56.39
2022-12-31T16:04:19.814Z,57.76
2022-12-31T16:06:50.683Z,57.41
2022-12-31T16:09:18.656Z,58.03
2022-12-31T16:11:46.005Z,57.45
2022-12-31T16:14:14.319Z,57.92
2022-12-31T16:16:41.889Z,57.49
2022-12-31T16:19:09.516Z,57.84
2022-12-31T16:21:38.795Z,57.78
2022-12-31T16:24:06.186Z,58.11
2022-12-31T16:26:33.933Z,57.89
2022-12-31T16:29:01.700Z,57.69
2022-12-31T16:31:29.675Z,57.17
2022-12-31T16:33:57.872Z,58.21
2022-12-31T16:36:26.139Z,57.65
2022-12-31T16:38:53.602Z,57.75
2022-12-31T16:41:21.252Z,59.92
2022-12-31T16:43:48.720Z,58.97
2022-12-31T16:46:16.172Z,59.01
2022-12-31T16:48:43.927Z,59.28
2022-12-31T16:51:12.001Z,57.63
2022-12-31T16:53:39.450Z,58.20
2022-12-31T16:56:12.518Z,58.09
2022-12-31T16:58:40.249Z,58.38
2022-12-31T17:01:07.865Z,58.64
2022-12-31T17:03:35.767Z,59.35
2022-12-31T17:06:05.855Z,58.93
2022-12-31T17:08:33.345Z,58.44
2022-12-31T17:11:00.805Z,60.12
2022-12-31T17:13:30.921Z,60.46
2022-12-31T17:15:58.605Z,60.09
2022-12-31T17:18:26.101Z,61.62
2022-12-31T17:20:55.820Z,60.62
2022-12-31T17:23:23.291Z,59.69
2022-12-31T17:25:50.622Z,60.06
2022-12-31T17:28:18.117Z,60.30
2022-12-31T17:30:45.863Z,60.13
2022-12-31T17:33:13.357Z,59.43
2022-12-31T17:35:40.753Z,59.32
2022-12-31T17:38:09.777Z,61.03
2022-12-31T17:40:52.785Z,61.11
2022-12-31T17:43:20.807Z,60.40
2022-12-31T17:45:48.219Z,60.43
2022-12-31T17:48:15.706Z,61.71
2022-12-31T17:50:43.726Z,62.32
2022-12-31T17:53:11.101Z,61.56
2022-12-31T17:55:38.485Z,60.73
2022-12-31T17:58:06.014Z,60.86
2022-12-31T18:00:33.630Z,59.74
2022-12-31T18:03:01.403Z,60.19
2022-12-31T18:05:29.021Z,60.93
2022-12-31T18:07:57.786Z,61.29
2022-12-31T18:10:25.563Z,61.55
2022-12-31T18:12:57.421Z,62.46
2022-12-31T18:15:25.237Z,60.86
2022-12-31T18:17:53.073Z,63.48
2022-12-31T18:20:25.233Z,65.20
2022-12-31T18:22:52.591Z,65.01
2022-12-31T18:25:19.949Z,64.17
2022-12-31T18:27:47.420Z,64.71
2022-12-31T18:30:22.760Z,63.38
2022-12-31T18:32:50.299Z,63.98
2022-12-31T18:35:49.047Z,62.75
2022-12-31T18:38:06.194Z,62.93
2022-12-31T18:40:36.649Z,62.95
2022-12-31T18:43:05.313Z,63.73
2022-12-31T18:45:32.860Z,63.96
2022-12-31T18:48:00.232Z,63.44
2022-12-31T18:50:28.037Z,63.23
2022-12-31T18:52:55.643Z,62.39
2022-12-31T18:55:23.514Z,61.95
2022-12-31T18:57:51.732Z,62.48
2022-12-31T19:00:19.389Z,61.37
2022-12-31T19:02:47.007Z,61.94
2022-12-31T19:05:14.623Z,62.11
2022-12-31T19:07:45.717Z,62.19
2022-12-31T19:10:13.131Z,61.56
2022-12-31T19:12:40.758Z,62.04
2022-12-31T19:15:08.537Z,62.31
2022-12-31T19:17:36.656Z,62.06
2022-12-31T19:20:04.166Z,62.86
2022-12-31T19:22:31.939Z,63.32
2022-12-31T19:24:59.261Z,62.04
2022-12-31T19:27:26.737Z,62.33
2022-12-31T19:29:54.200Z,61.75
2022-12-31T19:32:22.687Z,62.56
2022-12-31T19:34:50.551Z,62.46
2022-12-31T19:37:17.894Z,62.06
2022-12-31T19:39:45.365Z,62.64
2022-12-31T19:42:12.703Z,63.13
2022-12-31T19:44:42.015Z,62.16
2022-12-31T19:47:09.480Z,62.87
2022-12-31T19:49:37.346Z,62.67
2022-12-31T19:52:05.741Z,62.05
2022-12-31T19:54:33.279Z,63.15
2022-12-31T19:57:01.183Z,63.08
2022-12-31T19:59:28.605Z,62.52
2022-12-31T20:01:56.285Z,64.17
2022-12-31T20:04:24.411Z,62.86
2022-12-31T20:06:52.118Z,62.25
2022-12-31T20:09:19.487Z,62.52
2022-12-31T20:11:47.033Z,62.99
2022-12-31T20:14:14.633Z,63.27
2022-12-31T20:16:43.278Z,63.74
2022-12-31T20:19:10.668Z,63.95
2022-12-31T20:21:38.617Z,62.83
2022-12-31T20:24:06.272Z,62.57
2022-12-31T20:26:34.272Z,63.31
2022-12-31T20:29:01.579Z,64.88
2022-12-31T20:31:29.798Z,64.18
2022-12-31T20:33:57.641Z,65.32
2022-12-31T20:36:25.622Z,64.90
2022-12-31T20:38:53.090Z,63.54
2022-12-31T20:41:22.105Z,65.35
2022-12-31T20:43:49.965Z,65.42
2022-12-31T20:46:17.391Z,64.86
2022-12-31T20:48:44.870Z,64.94
2022-12-31T20:51:12.519Z,65.47
2022-12-31T20:53:40.301Z,65.91
2022-12-31T20:56:10.812Z,63.17
2022-12-31T20:58:39.093Z,63.96
2022-12-31T21:01:06.704Z,64.46
2022-12-31T21:06:21.541Z,63.00
2022-12-31T21:08:52.658Z,63.02
2022-12-31T21:11:20.055Z,63.76
2022-12-31T21:13:47.625Z,63.13
2022-12-31T21:16:16.709Z,62.75
2022-12-31T21:18:44.185Z,62.93
2022-12-31T21:21:11.534Z,65.06
2022-12-31T21:23:40.673Z,63.16
2022-12-31T21:26:09.392Z,64.28
2022-12-31T21:28:37.675Z,63.77
2022-12-31T21:31:05.415Z,65.16
2022-12-31T21:33:33.289Z,63.82
2022-12-31T21:36:04.671Z,64.94
2022-12-31T21:38:32.376Z,63.86
2022-12-31T21:41:00.673Z,65.37
2022-12-31T21:43:28.538Z,64.78
2022-12-31T21:45:58.000Z,64.63
2022-12-31T21:48:25.609Z,62.76
2022-12-31T21:50:53.062Z,63.65
2022-12-31T21:53:26.303Z,64.62
2022-12-31T21:55:56.681Z,64.12
2022-12-31T21:58:27.666Z,65.20
2022-12-31T22:01:02.904Z,65.12
2022-12-31T22:03:30.806Z,65.50
2022-12-31T22:05:59.128Z,65.87
2022-12-31T22:08:26.999Z,65.30
2022-12-31T22:10:54.362Z,64.83
2022-12-31T22:13:21.806Z,64.54
2022-12-31T22:15:49.418Z,63.80
2022-12-31T22:18:17.623Z,64.31
2022-12-31T22:20:45.009Z,64.37
2022-12-31T22:23:12.471Z,64.92
2022-12-31T22:25:40.642Z,64.86
2022-12-31T22:28:39.101Z,64.79
2022-12-31T22:30:57.674Z,65.66
2022-12-31T22:33:25.153Z,66.54
2022-12-31T22:35:53.089Z,65.78
2022-12-31T22:38:21.598Z,66.66
2022-12-31T22:40:49.043Z,65.01
2022-12-31T22:43:16.483Z,64.42
2022-12-31T22:45:44.576Z,64.58
2022-12-31T22:48:12.008Z,65.85
2022-12-31T22:50:39.490Z,66.73
2022-12-31T22:53:07.175Z,67.77
2022-12-31T22:55:34.609Z,67.94
2022-12-31T22:58:02.043Z,67.58
2022-12-31T23:00:29.746Z,68.18
2022-12-31T23:02:57.188Z,67.13
2022-12-31T23:05:24.560Z,66.77
2022-12-31T23:07:51.874Z,67.59
2022-12-31T23:10:19.579Z,66.05
2022-12-31T23:12:47.138Z,66.26
2022-12-31T23:15:18.575Z,65.45
2022-12-31T23:17:46.136Z,66.68
2022-12-31T23:20:13.463Z,67.22
2022-12-31T23:22:40.940Z,67.44
2022-12-31T23:25:08.497Z,67.92
2022-12-31T23:27:37.638Z,66.26
2022-12-31T23:30:05.152Z,65.96
2022-12-31T23:32:32.720Z,66.64
2022-12-31T23:35:04.571Z,66.89
2022-12-31T23:37:36.946Z,66.20
2022-12-31T23:40:04.433Z,66.97
2022-12-31T23:42:32.002Z,67.56
2022-12-31T23:45:02.584Z,67.58
2022-12-31T23:47:30.190Z,67.45
2022-12-31T23:49:57.506Z,67.18
2022-12-31T23:52:24.905Z,66.87
2022-12-31T23:54:52.353Z,65.75
2022-12-31T23:57:19.924Z,65.70
2022-12-31T23:59:47.459Z,65.93
